createdAt,value
2024-04-05T00:00:53.608Z,5.40
2024-04-05T00:03:39.947Z,5.90
2024-04-05T00:08:34.594Z,5.40
2024-04-05T00:11:01.120Z,5.80
2024-04-05T00:15:53.270Z,5.80
2024-04-05T00:18:20.418Z,5.80
2024-04-05T00:20:46.796Z,5.50
2024-04-05T00:25:38.739Z,5.00
2024-04-05T00:28:05.754Z,5.00
2024-04-05T00:30:32.174Z,5.40
2024-04-05T00:32:58.714Z,5.20
2024-04-05T00:35:25.368Z,5.20
2024-04-05T00:37:51.903Z,5.40
2024-04-05T00:40:18.627Z,5.20
2024-04-05T00:42:45.167Z,5.20
2024-04-05T00:45:11.833Z,5.50
2024-04-05T00:47:38.728Z,5.40
2024-04-05T00:50:08.171Z,5.20
2024-04-05T00:52:35.115Z,5.60
2024-04-05T00:55:02.248Z,5.60
2024-04-05T00:57:29.293Z,5.30
2024-04-05T00:59:56.451Z,5.60
2024-04-05T01:02:23.082Z,6.00
2024-04-05T01:04:49.516Z,5.70
2024-04-05T01:07:16.057Z,5.60
2024-04-05T01:09:42.591Z,5.40
2024-04-05T01:12:10.082Z,5.90
2024-04-05T01:14:36.697Z,5.10
2024-04-05T01:17:03.144Z,5.50
2024-04-05T01:19:32.936Z,5.40
2024-04-05T01:22:01.954Z,5.40
2024-04-05T01:24:28.881Z,5.90
2024-04-05T01:26:55.412Z,6.20
2024-04-05T01:29:21.960Z,5.50
2024-04-05T01:31:48.288Z,5.60
2024-04-05T01:34:15.629Z,5.40
2024-04-05T01:36:41.987Z,5.40
2024-04-05T01:41:35.342Z,5.50
2024-04-05T01:44:03.670Z,5.30
2024-04-05T01:46:30.148Z,5.10
2024-04-05T01:48:56.688Z,5.00
2024-04-05T01:51:23.550Z,4.70
2024-04-05T01:53:50.068Z,4.60
2024-04-05T01:56:16.599Z,4.50
2024-04-05T01:58:44.386Z,4.60
2024-04-05T02:01:10.840Z,4.50
2024-04-05T02:06:02.394Z,4.10
2024-04-05T02:10:53.857Z,3.60
2024-04-05T02:13:20.412Z,2.70
2024-04-05T02:15:49.237Z,3.10
2024-04-05T02:18:15.732Z,2.90
2024-04-05T02:20:44.418Z,2.90
2024-04-05T02:23:11.102Z,2.40
2024-04-05T02:25:37.468Z,2.40
2024-04-05T02:30:28.924Z,2.50
2024-04-05T02:32:55.492Z,2.50
2024-04-05T02:35:22.204Z,2.40
2024-04-05T02:37:49.088Z,2.30
2024-04-05T02:40:15.921Z,2.20
2024-04-05T02:42:42.529Z,2.10
2024-04-05T02:45:09.909Z,2.20
2024-04-05T02:47:36.313Z,2.20
2024-04-05T02:52:27.986Z,2.40
2024-04-05T02:54:54.323Z,2.30
2024-04-05T02:59:46.047Z,2.10
2024-04-05T03:02:13.350Z,2.50
2024-04-05T03:04:39.740Z,2.20
2024-04-05T03:07:06.787Z,2.10
2024-04-05T03:09:34.027Z,2.10
2024-04-05T03:12:00.754Z,2.50
2024-04-05T03:14:27.914Z,2.30
2024-04-05T03:16:55.232Z,2.00
2024-04-05T03:19:21.808Z,1.90
2024-04-05T03:21:48.227Z,2.10
2024-04-05T03:24:14.598Z,2.30
2024-04-05T03:29:07.284Z,2.10
2024-04-05T03:31:34.172Z,2.20
2024-04-05T03:34:00.604Z,2.00
2024-04-05T03:36:27.032Z,2.20
2024-04-05T03:41:18.773Z,2.00
2024-04-05T03:43:45.555Z,2.00
2024-04-05T03:46:12.255Z,2.30
2024-04-05T03:48:38.789Z,2.50
2024-04-05T03:51:05.665Z,1.90
2024-04-05T03:53:32.105Z,2.20
2024-04-05T03:58:24.118Z,2.20
2024-04-05T04:00:54.989Z,2.30
2024-04-05T04:03:21.793Z,2.10
2024-04-05T04:05:48.321Z,2.10
2024-04-05T04:08:15.383Z,2.40
2024-04-05T04:10:43.430Z,2.40
2024-04-05T04:13:10.251Z,2.40
2024-04-05T04:15:37.864Z,2.20
2024-04-05T04:18:04.599Z,2.40
2024-04-05T04:20:31.242Z,2.50
2024-04-05T04:22:57.768Z,2.20
2024-04-05T04:25:24.201Z,2.40
2024-04-05T04:27:51.369Z,2.80
2024-04-05T04:30:18.000Z,2.20
2024-04-05T04:32:44.538Z,2.60
2024-04-05T04:35:11.726Z,2.80
2024-04-05T04:37:38.292Z,2.40
2024-04-05T04:40:05.712Z,2.80
2024-04-05T04:42:32.204Z,2.50
2024-04-05T04:44:59.099Z,2.40
2024-04-05T04:47:28.251Z,2.80
2024-04-05T04:49:56.274Z,2.60
2024-04-05T04:52:23.911Z,2.90
2024-04-05T04:54:51.067Z,2.80
2024-04-05T04:57:17.575Z,2.90
2024-04-05T04:59:44.096Z,2.70
2024-04-05T05:02:10.840Z,3.30
2024-04-05T05:04:37.271Z,2.60
2024-04-05T05:07:04.322Z,2.60
2024-04-05T05:09:30.775Z,2.40
2024-04-05T05:11:57.412Z,2.60
2024-04-05T05:14:24.723Z,2.30
2024-04-05T05:16:51.132Z,2.40
2024-04-05T05:19:17.616Z,2.20
2024-04-05T05:21:44.660Z,2.10
2024-04-05T05:24:11.339Z,2.00
2024-04-05T05:26:37.847Z,1.80
2024-04-05T05:29:05.194Z,1.80
2024-04-05T05:31:31.654Z,1.90
2024-04-05T05:33:58.566Z,1.60
2024-04-05T05:36:24.937Z,1.20
2024-04-05T05:38:51.302Z,2.10
2024-04-05T05:41:18.179Z,1.50
2024-04-05T05:43:45.350Z,1.80
2024-04-05T05:46:11.868Z,1.80
2024-04-05T05:48:38.878Z,1.60
2024-04-05T05:51:05.773Z,1.50
2024-04-05T05:53:32.228Z,1.50
2024-04-05T05:56:01.251Z,1.70
2024-04-05T05:58:29.254Z,1.30
2024-04-05T06:00:55.862Z,1.50
2024-04-05T06:03:23.256Z,1.40
2024-04-05T06:05:55.777Z,1.50
2024-04-05T06:08:22.365Z,1.40
2024-04-05T06:10:58.588Z,1.80
2024-04-05T06:13:26.019Z,1.90
2024-04-05T06:15:58.458Z,1.70
2024-04-05T06:18:25.515Z,1.70
2024-04-05T06:20:57.207Z,2.20
2024-04-05T06:23:24.143Z,1.60
2024-04-05T06:25:58.649Z,1.70
2024-04-05T06:28:25.573Z,1.80
2024-04-05T06:30:52.049Z,1.90
2024-04-05T06:33:18.546Z,1.70
2024-04-05T06:35:45.288Z,2.00
2024-04-05T06:38:11.824Z,2.10
2024-04-05T06:40:39.743Z,1.70
2024-04-05T06:43:07.929Z,1.70
2024-04-05T06:45:34.523Z,2.10
2024-04-05T06:48:02.638Z,1.80
2024-04-05T06:50:32.016Z,1.80
2024-04-05T06:53:00.644Z,1.90
2024-04-05T06:55:27.723Z,2.00
2024-04-05T06:57:56.070Z,2.00
2024-04-05T07:00:23.377Z,2.20
2024-04-05T07:02:49.911Z,2.20
2024-04-05T07:05:17.034Z,2.10
2024-04-05T07:07:43.568Z,1.80
2024-04-05T07:10:10.931Z,2.00
2024-04-05T07:12:37.663Z,1.90
2024-04-05T07:15:06.268Z,1.90
2024-04-05T07:17:32.739Z,2.00
2024-04-05T07:20:00.568Z,1.90
2024-04-05T07:22:28.894Z,1.90
2024-04-05T07:24:55.785Z,1.50
2024-04-05T07:27:23.699Z,1.60
2024-04-05T07:29:50.289Z,1.80
2024-04-05T07:32:17.482Z,1.60
2024-04-05T07:34:43.962Z,1.70
2024-04-05T07:37:11.254Z,1.90
2024-04-05T07:39:40.415Z,2.10
2024-04-05T07:42:07.664Z,1.60
2024-04-05T07:44:34.816Z,1.80
2024-04-05T07:47:01.264Z,1.70
2024-04-05T07:49:27.786Z,1.60
2024-04-05T07:51:54.422Z,1.90
2024-04-05T07:54:22.191Z,2.00
2024-04-05T07:56:51.916Z,1.70
2024-04-05T07:59:23.290Z,1.90
2024-04-05T08:01:50.411Z,2.00
2024-04-05T08:04:16.877Z,1.80
2024-04-05T08:06:43.467Z,2.00
2024-04-05T08:09:12.769Z,1.80
2024-04-05T08:11:39.303Z,1.70
2024-04-05T08:14:05.736Z,1.90
2024-04-05T08:16:32.270Z,2.00
2024-04-05T08:18:59.321Z,1.70
2024-04-05T08:21:25.859Z,1.90
2024-04-05T08:23:52.334Z,2.00
2024-04-05T08:26:18.713Z,2.00
2024-04-05T08:28:45.259Z,2.40
2024-04-05T08:31:11.807Z,2.00
2024-04-05T08:33:38.351Z,1.80
2024-04-05T08:36:05.072Z,2.00
2024-04-05T08:38:31.489Z,2.00
2024-04-05T08:40:59.544Z,1.90
2024-04-05T08:43:32.261Z,1.90
2024-04-05T08:45:58.795Z,1.80
2024-04-05T08:48:29.649Z,1.50
2024-04-05T08:50:56.988Z,2.10
2024-04-05T08:53:23.635Z,1.90
2024-04-05T08:55:50.986Z,2.00
2024-04-05T08:58:18.463Z,2.40
2024-04-05T09:00:45.286Z,2.10
2024-04-05T09:03:12.839Z,1.70
2024-04-05T09:05:39.275Z,1.90
2024-04-05T09:08:10.391Z,2.00
2024-04-05T09:10:37.656Z,1.90
2024-04-05T09:13:06.169Z,1.90
2024-04-05T09:15:33.716Z,1.80
2024-04-05T09:18:00.725Z,2.00
2024-04-05T09:20:31.395Z,1.70
2024-04-05T09:23:05.531Z,2.00
2024-04-05T09:25:33.805Z,2.10
2024-04-05T09:28:13.266Z,2.20
2024-04-05T09:30:41.913Z,1.90
2024-04-05T09:33:08.546Z,2.50
2024-04-05T09:35:39.075Z,2.30
2024-04-05T09:38:06.184Z,2.10
2024-04-05T09:40:33.945Z,2.40
2024-04-05T09:43:02.460Z,2.70
2024-04-05T09:45:32.390Z,2.30
2024-04-05T09:47:59.928Z,2.10
2024-04-05T09:50:27.472Z,2.30
2024-04-05T09:52:55.460Z,2.30
2024-04-05T09:55:25.666Z,2.30
2024-04-05T09:57:52.742Z,2.30
2024-04-05T10:00:24.916Z,2.10
2024-04-05T10:02:54.569Z,2.00
2024-04-05T10:05:29.840Z,2.30
2024-04-05T10:07:57.241Z,2.30
2024-04-05T10:10:33.745Z,2.30
2024-04-05T10:13:10.665Z,2.40
2024-04-05T10:15:37.198Z,2.30
2024-04-05T10:18:03.647Z,2.60
2024-04-05T10:20:31.022Z,2.30
2024-04-05T10:23:04.787Z,2.40
2024-04-05T10:25:31.484Z,2.20
2024-04-05T10:27:58.173Z,2.50
2024-04-05T10:30:25.233Z,2.60
2024-04-05T10:33:01.202Z,2.20
2024-04-05T10:35:28.345Z,2.70
2024-04-05T10:38:14.142Z,2.50
2024-04-05T10:40:46.493Z,2.10
2024-04-05T10:43:14.541Z,2.00
2024-04-05T10:45:42.171Z,1.80
2024-04-05T10:48:11.833Z,2.00
2024-04-05T10:50:41.553Z,1.70
2024-04-05T10:53:09.101Z,2.20
2024-04-05T10:55:37.658Z,2.20
2024-04-05T10:58:08.899Z,2.00
2024-04-05T11:00:37.534Z,2.10
2024-04-05T11:03:04.972Z,2.10
2024-04-05T11:05:31.511Z,1.60
2024-04-05T11:08:05.187Z,1.90
2024-04-05T11:10:35.652Z,1.80
2024-04-05T11:13:02.586Z,1.90
2024-04-05T11:15:29.123Z,2.20
2024-04-05T11:18:04.754Z,1.80
2024-04-05T11:20:32.947Z,2.20
2024-04-05T11:23:03.376Z,2.10
2024-04-05T11:25:30.115Z,2.00
2024-04-05T11:27:56.461Z,2.30
2024-04-05T11:30:23.404Z,2.50
2024-04-05T11:32:49.930Z,2.20
2024-04-05T11:35:16.668Z,2.30
2024-04-05T11:37:47.362Z,2.00
2024-04-05T11:40:23.032Z,3.10
2024-04-05T11:42:55.832Z,2.40
2024-04-05T11:45:22.315Z,2.20
2024-04-05T11:47:48.808Z,2.20
2024-04-05T11:50:15.314Z,2.10
2024-04-05T11:52:41.903Z,2.50
2024-04-05T11:55:09.333Z,2.40
2024-04-05T11:57:36.388Z,2.30
2024-04-05T12:00:05.815Z,2.40
2024-04-05T12:02:40.200Z,2.40
2024-04-05T12:05:08.682Z,2.90
2024-04-05T12:07:35.441Z,2.50
2024-04-05T12:10:02.017Z,2.30
2024-04-05T12:12:29.789Z,2.40
2024-04-05T12:14:56.566Z,2.20
2024-04-05T12:17:23.715Z,2.30
2024-04-05T12:19:51.131Z,2.10
2024-04-05T12:22:17.635Z,2.10
2024-04-05T12:24:47.937Z,2.20
2024-04-05T12:27:16.924Z,2.10
2024-04-05T12:29:47.252Z,2.00
2024-04-05T12:32:13.999Z,2.30
2024-04-05T12:34:40.535Z,2.10
2024-04-05T12:37:10.464Z,2.40
2024-04-05T12:39:37.321Z,2.30
2024-04-05T12:42:04.146Z,2.40
2024-04-05T12:44:31.373Z,2.20
2024-04-05T12:46:59.368Z,2.20
2024-04-05T12:49:26.190Z,2.50
2024-04-05T12:51:54.098Z,2.10
2024-04-05T12:54:20.921Z,2.60
2024-04-05T12:56:48.221Z,2.50
2024-04-05T12:59:15.719Z,2.10
2024-04-05T13:01:42.406Z,2.30
2024-04-05T13:04:09.286Z,2.40
2024-04-05T13:06:38.100Z,2.70
2024-04-05T13:09:04.754Z,2.10
2024-04-05T13:11:31.477Z,2.50
2024-04-05T13:13:57.917Z,1.90
2024-04-05T13:16:24.446Z,2.00
2024-04-05T13:18:52.318Z,2.10
2024-04-05T13:21:19.048Z,1.90
2024-04-05T13:23:47.667Z,2.20
2024-04-05T13:26:17.319Z,1.60
2024-04-05T13:28:45.515Z,1.50
2024-04-05T13:31:12.066Z,1.70
2024-04-05T13:33:39.078Z,1.60
2024-04-05T13:36:13.389Z,1.70
2024-04-05T13:38:40.799Z,1.60
2024-04-05T13:41:08.312Z,1.70
2024-04-05T13:43:34.996Z,1.60
2024-04-05T13:46:13.594Z,1.50
2024-04-05T13:48:43.924Z,1.30
2024-04-05T13:51:10.569Z,1.20
2024-04-05T13:53:38.677Z,1.10
2024-04-05T13:56:06.631Z,1.70
2024-04-05T13:58:33.888Z,1.30
2024-04-05T14:01:01.821Z,1.50
2024-04-05T14:03:28.378Z,1.10
2024-04-05T14:05:55.659Z,1.60
2024-04-05T14:08:22.348Z,1.40
2024-04-05T14:10:49.500Z,1.40
2024-04-05T14:13:16.499Z,1.30
2024-04-05T14:15:43.309Z,1.30
2024-04-05T14:18:13.403Z,1.30
2024-04-05T14:20:41.277Z,1.50
2024-04-05T14:23:09.178Z,1.60
2024-04-05T14:25:36.002Z,1.30
2024-04-05T14:28:02.450Z,1.50
2024-04-05T14:30:31.262Z,1.50
2024-04-05T14:32:57.681Z,1.20
2024-04-05T14:35:24.175Z,1.30
2024-04-05T14:37:51.636Z,1.30
2024-04-05T14:40:18.479Z,1.10
2024-04-05T14:42:44.910Z,1.20
2024-04-05T14:45:12.652Z,1.30
2024-04-05T14:47:39.211Z,1.50
2024-04-05T14:50:09.158Z,1.40
2024-04-05T14:52:36.787Z,1.20
2024-04-05T14:55:05.918Z,1.40
2024-04-05T14:57:33.282Z,1.40
2024-04-05T14:59:59.878Z,1.50
2024-04-05T15:02:26.549Z,1.40
2024-04-05T15:04:53.732Z,1.60
2024-04-05T15:07:20.271Z,1.20
2024-04-05T15:09:46.840Z,1.60
2024-04-05T15:12:13.585Z,1.30
2024-04-05T15:14:40.217Z,1.60
2024-04-05T15:17:07.673Z,1.80
2024-04-05T15:19:34.454Z,1.60
2024-04-05T15:22:01.463Z,1.50
2024-04-05T15:24:28.075Z,1.40
2024-04-05T15:26:57.609Z,2.30
2024-04-05T15:29:24.550Z,1.60
2024-04-05T15:31:50.987Z,1.40
2024-04-05T15:34:18.888Z,1.90
2024-04-05T15:36:46.445Z,1.40
2024-04-05T15:39:14.705Z,1.40
2024-04-05T15:41:41.228Z,1.50
2024-04-05T15:44:07.936Z,1.50
2024-04-05T15:46:35.528Z,1.20
2024-04-05T15:49:01.963Z,1.30
2024-04-05T15:51:28.499Z,1.70
2024-04-05T15:53:59.967Z,1.40
2024-04-05T15:56:27.145Z,1.70
2024-04-05T15:58:53.639Z,1.50
2024-04-05T16:01:20.331Z,1.40
2024-04-05T16:03:48.880Z,1.60
2024-04-05T16:06:15.575Z,1.50
2024-04-05T16:08:43.094Z,1.40
2024-04-05T16:11:11.784Z,1.70
2024-04-05T16:13:38.563Z,1.80
2024-04-05T16:16:06.653Z,1.70
2024-04-05T16:18:37.730Z,1.70
2024-04-05T16:21:10.326Z,1.60
2024-04-05T16:23:37.228Z,1.70
2024-04-05T16:26:05.387Z,1.60
2024-04-05T16:28:31.935Z,1.80
2024-04-05T16:30:58.570Z,2.20
2024-04-05T16:33:25.523Z,2.10
2024-04-05T16:35:52.560Z,2.10
2024-04-05T16:38:22.607Z,2.10
2024-04-05T16:40:49.484Z,2.30
2024-04-05T16:43:16.269Z,2.10
2024-04-05T16:45:43.937Z,2.20
2024-04-05T16:48:10.759Z,2.00
2024-04-05T16:50:41.614Z,2.10
2024-04-05T16:53:10.948Z,2.20
2024-04-05T16:55:37.594Z,2.40
2024-04-05T16:58:04.801Z,2.30
2024-04-05T17:00:31.646Z,2.30
2024-04-05T17:03:06.071Z,2.20
2024-04-05T17:05:34.034Z,2.30
2024-04-05T17:08:02.527Z,2.40
2024-04-05T17:10:38.489Z,2.40
2024-04-05T17:13:08.514Z,2.50
2024-04-05T17:15:35.044Z,2.80
2024-04-05T17:18:01.793Z,2.70
2024-04-05T17:20:28.414Z,2.70
2024-04-05T17:22:55.910Z,2.80
2024-04-05T17:25:22.933Z,2.70
2024-04-05T17:27:50.563Z,2.60
2024-04-05T17:30:17.663Z,3.00
2024-04-05T17:32:45.166Z,2.70
2024-04-05T17:35:11.735Z,2.90
2024-04-05T17:37:38.198Z,2.90
2024-04-05T17:40:06.227Z,2.90
2024-04-05T17:42:34.428Z,2.90
2024-04-05T17:45:00.864Z,2.80
2024-04-05T17:47:27.338Z,2.80
2024-04-05T17:49:53.823Z,3.40
2024-04-05T17:52:20.596Z,4.30
2024-04-05T17:54:47.703Z,4.00
2024-04-05T17:57:14.126Z,4.60
2024-04-05T17:59:40.566Z,4.00
2024-04-05T18:02:07.448Z,4.20
2024-04-05T18:04:35.784Z,5.00
2024-04-05T18:07:02.305Z,5.20
2024-04-05T18:09:29.162Z,4.80
2024-04-05T18:11:55.696Z,4.50
2024-04-05T18:14:22.341Z,4.30
2024-04-05T18:16:48.880Z,4.20
2024-04-05T18:19:18.377Z,4.00
2024-04-05T18:21:45.036Z,3.80
2024-04-05T18:24:12.003Z,3.90
2024-04-05T18:26:38.433Z,4.50
2024-04-05T18:29:04.943Z,4.30
2024-04-05T18:31:31.669Z,4.70
2024-04-05T18:33:59.267Z,4.70
2024-04-05T18:36:25.888Z,4.60
2024-04-05T18:38:57.169Z,4.90
2024-04-05T18:41:25.266Z,4.60
2024-04-05T18:43:51.938Z,4.90
2024-04-05T18:46:19.838Z,4.90
2024-04-05T18:48:46.951Z,5.30
2024-04-05T18:51:18.400Z,6.20
2024-04-05T18:53:44.941Z,5.70
2024-04-05T18:56:15.634Z,5.90
2024-04-05T18:58:42.308Z,6.60
2024-04-05T19:01:09.966Z,6.20
2024-04-05T19:03:42.138Z,6.40
2024-04-05T19:06:11.274Z,6.80
2024-04-05T19:08:38.287Z,6.60
2024-04-05T19:11:05.876Z,7.40
2024-04-05T19:13:37.293Z,7.50
2024-04-05T19:16:04.986Z,8.00
2024-04-05T19:18:31.657Z,8.60
2024-04-05T19:21:01.584Z,8.50
2024-04-05T19:23:30.512Z,8.10
2024-04-05T19:25:57.349Z,8.70
2024-04-05T19:28:24.129Z,8.00
2024-04-05T19:30:56.128Z,8.30
2024-04-05T19:33:23.491Z,8.00
2024-04-05T19:35:50.255Z,8.90
2024-04-05T19:38:18.458Z,9.00
2024-04-05T19:40:49.060Z,8.60
2024-04-05T19:43:15.900Z,9.00
2024-04-05T19:45:43.870Z,8.30
2024-04-05T19:48:11.800Z,8.20
2024-04-05T19:50:38.354Z,8.40
2024-04-05T19:53:07.312Z,8.60
2024-04-05T19:55:34.110Z,8.30
2024-04-05T19:58:04.057Z,8.40
2024-04-05T20:00:35.086Z,8.80
2024-04-05T20:03:01.559Z,8.30
2024-04-05T20:05:28.108Z,8.30
2024-04-05T20:07:55.391Z,8.40
2024-04-05T20:10:21.921Z,8.30
2024-04-05T20:12:48.771Z,9.20
2024-04-05T20:15:15.650Z,8.50
2024-04-05T20:17:42.026Z,9.70
2024-04-05T20:22:34.917Z,9.80
2024-04-05T20:25:01.549Z,10.70
2024-04-05T20:27:28.496Z,10.90
2024-04-05T20:30:12.509Z,10.20
2024-04-05T20:32:39.180Z,10.10
2024-04-05T20:35:07.507Z,9.20
2024-04-05T20:37:34.745Z,9.10
2024-04-05T20:40:02.538Z,9.60
2024-04-05T20:42:28.907Z,9.10
2024-04-05T20:44:56.366Z,9.50
2024-04-05T20:47:22.920Z,8.90
2024-04-05T20:49:49.336Z,9.40
2024-04-05T20:52:16.105Z,9.40
2024-04-05T20:54:42.851Z,9.20
2024-04-05T20:57:10.444Z,9.00
2024-04-05T20:59:37.660Z,9.50
2024-04-05T21:02:04.367Z,9.00
2024-04-05T21:04:31.371Z,9.40
2024-04-05T21:06:58.377Z,9.40
2024-04-05T21:09:26.033Z,9.10
2024-04-05T21:11:52.593Z,8.90
2024-04-05T21:14:19.226Z,9.00
2024-04-05T21:16:46.179Z,9.30
2024-04-05T21:19:12.689Z,8.30
2024-04-05T21:21:39.239Z,9.20
2024-04-05T21:24:06.245Z,8.10
2024-04-05T21:26:33.102Z,8.50
2024-04-05T21:29:00.032Z,8.00
2024-04-05T21:31:26.716Z,8.00
2024-04-05T21:33:53.536Z,7.40
2024-04-05T21:36:20.698Z,7.40
2024-04-05T21:38:48.042Z,7.40
2024-04-05T21:41:14.785Z,6.80
2024-04-05T21:43:41.530Z,7.50
2024-04-05T21:46:08.551Z,6.70
2024-04-05T21:48:36.253Z,7.30
2024-04-05T21:53:33.303Z,6.70
2024-04-05T21:56:00.139Z,7.10
2024-04-05T21:58:28.827Z,7.10
2024-04-05T22:00:55.506Z,6.50
2024-04-05T22:03:22.202Z,6.40
2024-04-05T22:05:48.742Z,6.70
2024-04-05T22:08:15.337Z,5.80
2024-04-05T22:10:41.919Z,5.90
2024-04-05T22:13:08.662Z,5.80
2024-04-05T22:15:35.496Z,5.50
2024-04-05T22:18:02.065Z,5.50
2024-04-05T22:20:28.556Z,6.10
2024-04-05T22:22:55.111Z,5.70
2024-04-05T22:25:24.511Z,6.40
2024-04-05T22:27:51.009Z,6.30
2024-04-05T22:30:18.965Z,6.40
2024-04-05T22:32:45.354Z,6.20
2024-04-05T22:37:37.861Z,7.30
2024-04-05T22:42:29.721Z,7.00
2024-04-05T22:44:56.390Z,6.80
2024-04-05T22:49:47.923Z,6.60
2024-04-05T22:52:14.358Z,6.60
2024-04-05T22:54:40.861Z,6.40
2024-04-05T22:57:07.832Z,6.20
2024-04-05T22:59:34.205Z,5.90
2024-04-05T23:02:00.707Z,6.70
2024-04-05T23:04:27.395Z,6.40
2024-04-05T23:06:53.734Z,6.50
2024-04-05T23:09:20.210Z,6.60
2024-04-05T23:11:46.520Z,6.70
2024-04-05T23:16:37.979Z,6.30
2024-04-05T23:19:04.328Z,7.20
2024-04-05T23:21:30.687Z,6.50
2024-04-05T23:26:25.130Z,6.40
2024-04-05T23:28:51.575Z,6.90
2024-04-05T23:31:17.925Z,6.50
2024-04-05T23:36:10.004Z,6.50
2024-04-05T23:38:36.640Z,6.20
2024-04-05T23:41:02.992Z,6.30
2024-04-05T23:45:54.932Z,6.10
2024-04-05T23:50:46.204Z,5.90
2024-04-05T23:55:38.308Z,5.20
2024-04-05T23:58:05.545Z,5.60
